sensor_id;sensor_type;location;lat;lon;timestamp;pressure;altitude;pressure_sealevel;temperature
70969;BMP280;58630;43.022;25.100;2023-04-15T00:02:21;;;;16.40
70969;BMP280;58630;43.022;25.100;2023-04-15T00:04:47;;;;16.40
70969;BMP280;58630;43.022;25.100;2023-04-15T00:07:12;;;;16.40
70969;BMP280;58630;43.022;25.100;2023-04-15T00:09:40;;;;16.40
70969;BMP280;58630;43.022;25.100;2023-04-15T00:12:05;;;;16.40
70969;BMP280;58630;43.022;25.100;2023-04-15T00:14:32;;;;16.40
70969;BMP280;58630;43.022;25.100;2023-04-15T00:16:57;;;;16.40
70969;BMP280;58630;43.022;25.100;2023-04-15T00:19:23;;;;16.40
70969;BMP280;58630;43.022;25.100;2023-04-15T00:21:49;;;;16.40
70969;BMP280;58630;43.022;25.100;2023-04-15T00:24:15;;;;16.30
70969;BMP280;58630;43.022;25.100;2023-04-15T00:26:41;;;;16.30
70969;BMP280;58630;43.022;25.100;2023-04-15T00:29:06;;;;16.30
70969;BMP280;58630;43.022;25.100;2023-04-15T00:31:32;;;;16.30
70969;BMP280;58630;43.022;25.100;2023-04-15T00:33:58;;;;16.30
70969;BMP280;58630;43.022;25.100;2023-04-15T00:36:24;;;;16.30
70969;BMP280;58630;43.022;25.100;2023-04-15T00:38:50;;;;16.30
70969;BMP280;58630;43.022;25.100;2023-04-15T00:41:16;;;;16.30
70969;BMP280;58630;43.022;25.100;2023-04-15T00:43:42;;;;16.30
70969;BMP280;58630;43.022;25.100;2023-04-15T00:46:07;;;;16.30
70969;BMP280;58630;43.022;25.100;2023-04-15T00:48:33;;;;16.30
70969;BMP280;58630;43.022;25.100;2023-04-15T00:50:59;;;;16.20
70969;BMP280;58630;43.022;25.100;2023-04-15T00:53:25;;;;16.20
70969;BMP280;58630;43.022;25.100;2023-04-15T00:55:50;;;;16.20
70969;BMP280;58630;43.022;25.100;2023-04-15T00:58:16;;;;16.20
70969;BMP280;58630;43.022;25.100;2023-04-15T01:00:42;;;;16.20
70969;BMP280;58630;43.022;25.100;2023-04-15T01:03:08;;;;16.20
70969;BMP280;58630;43.022;25.100;2023-04-15T01:05:34;;;;16.20
70969;BMP280;58630;43.022;25.100;2023-04-15T01:08:00;;;;16.20
70969;BMP280;58630;43.022;25.100;2023-04-15T01:10:25;;;;16.10
70969;BMP280;58630;43.022;25.100;2023-04-15T01:12:51;;;;16.10
70969;BMP280;58630;43.022;25.100;2023-04-15T01:15:17;;;;16.20
70969;BMP280;58630;43.022;25.100;2023-04-15T01:17:43;;;;16.10
70969;BMP280;58630;43.022;25.100;2023-04-15T01:20:08;;;;16.10
70969;BMP280;58630;43.022;25.100;2023-04-15T01:22:35;;;;16.10
70969;BMP280;58630;43.022;25.100;2023-04-15T01:25:11;;;;16.10
70969;BMP280;58630;43.022;25.100;2023-04-15T01:27:40;;;;16.10
70969;BMP280;58630;43.022;25.100;2023-04-15T01:30:07;;;;16.10
70969;BMP280;58630;43.022;25.100;2023-04-15T01:32:32;;;;16.10
70969;BMP280;58630;43.022;25.100;2023-04-15T01:34:58;;;;16.00
70969;BMP280;58630;43.022;25.100;2023-04-15T01:37:24;;;;16.10
70969;BMP280;58630;43.022;25.100;2023-04-15T01:39:50;;;;16.00
70969;BMP280;58630;43.022;25.100;2023-04-15T01:42:16;;;;16.00
70969;BMP280;58630;43.022;25.100;2023-04-15T01:44:41;;;;16.00
70969;BMP280;58630;43.022;25.100;2023-04-15T01:47:07;;;;16.00
70969;BMP280;58630;43.022;25.100;2023-04-15T01:49:33;;;;16.00
70969;BMP280;58630;43.022;25.100;2023-04-15T01:51:58;;;;16.00
70969;BMP280;58630;43.022;25.100;2023-04-15T01:54:25;;;;16.00
70969;BMP280;58630;43.022;25.100;2023-04-15T01:56:51;;;;16.00
70969;BMP280;58630;43.022;25.100;2023-04-15T01:59:17;;;;15.90
70969;BMP280;58630;43.022;25.100;2023-04-15T02:01:43;;;;15.90
70969;BMP280;58630;43.022;25.100;2023-04-15T02:04:09;;;;15.90
70969;BMP280;58630;43.022;25.100;2023-04-15T02:06:41;;;;15.90
70969;BMP280;58630;43.022;25.100;2023-04-15T02:09:07;;;;15.90
70969;BMP280;58630;43.022;25.100;2023-04-15T02:11:32;;;;15.90
70969;BMP280;58630;43.022;25.100;2023-04-15T02:13:59;;;;15.90
70969;BMP280;58630;43.022;25.100;2023-04-15T02:16:24;;;;15.90
70969;BMP280;58630;43.022;25.100;2023-04-15T02:18:50;;;;15.90
70969;BMP280;58630;43.022;25.100;2023-04-15T02:21:16;;;;15.90
70969;BMP280;58630;43.022;25.100;2023-04-15T02:23:43;;;;15.90
70969;BMP280;58630;43.022;25.100;2023-04-15T02:26:08;;;;15.90
70969;BMP280;58630;43.022;25.100;2023-04-15T02:28:35;;;;15.80
70969;BMP280;58630;43.022;25.100;2023-04-15T02:31:04;;;;15.80
70969;BMP280;58630;43.022;25.100;2023-04-15T02:33:30;;;;15.80
70969;BMP280;58630;43.022;25.100;2023-04-15T02:35:56;;;;15.80
70969;BMP280;58630;43.022;25.100;2023-04-15T02:38:22;;;;15.80
70969;BMP280;58630;43.022;25.100;2023-04-15T02:40:47;;;;15.80
70969;BMP280;58630;43.022;25.100;2023-04-15T02:43:14;;;;15.80
70969;BMP280;58630;43.022;25.100;2023-04-15T02:45:41;;;;15.80
70969;BMP280;58630;43.022;25.100;2023-04-15T02:48:07;;;;15.80
70969;BMP280;58630;43.022;25.100;2023-04-15T02:50:33;;;;15.70
70969;BMP280;58630;43.022;25.100;2023-04-15T02:52:59;;;;15.70
70969;BMP280;58630;43.022;25.100;2023-04-15T02:55:25;;;;15.70
70969;BMP280;58630;43.022;25.100;2023-04-15T02:57:51;;;;15.70
70969;BMP280;58630;43.022;25.100;2023-04-15T03:00:17;;;;15.70
70969;BMP280;58630;43.022;25.100;2023-04-15T03:02:43;;;;15.70
70969;BMP280;58630;43.022;25.100;2023-04-15T03:05:11;;;;15.70
70969;BMP280;58630;43.022;25.100;2023-04-15T03:07:38;;;;15.70
70969;BMP280;58630;43.022;25.100;2023-04-15T03:10:04;;;;15.70
70969;BMP280;58630;43.022;25.100;2023-04-15T03:12:30;;;;15.60
70969;BMP280;58630;43.022;25.100;2023-04-15T03:14:56;;;;15.70
70969;BMP280;58630;43.022;25.100;2023-04-15T03:17:21;;;;15.70
70969;BMP280;58630;43.022;25.100;2023-04-15T03:19:47;;;;15.60
70969;BMP280;58630;43.022;25.100;2023-04-15T03:22:12;;;;15.60
70969;BMP280;58630;43.022;25.100;2023-04-15T03:24:38;;;;15.60
70969;BMP280;58630;43.022;25.100;2023-04-15T03:27:03;;;;15.60
70969;BMP280;58630;43.022;25.100;2023-04-15T03:29:30;;;;15.60
70969;BMP280;58630;43.022;25.100;2023-04-15T03:31:56;;;;15.60
70969;BMP280;58630;43.022;25.100;2023-04-15T03:34:21;;;;15.60
70969;BMP280;58630;43.022;25.100;2023-04-15T03:36:47;;;;15.60
70969;BMP280;58630;43.022;25.100;2023-04-15T03:39:12;;;;15.60
70969;BMP280;58630;43.022;25.100;2023-04-15T03:41:38;;;;15.60
70969;BMP280;58630;43.022;25.100;2023-04-15T03:44:03;;;;15.50
70969;BMP280;58630;43.022;25.100;2023-04-15T03:46:29;;;;15.50
70969;BMP280;58630;43.022;25.100;2023-04-15T03:48:54;;;;15.50
70969;BMP280;58630;43.022;25.100;2023-04-15T03:51:20;;;;15.50
70969;BMP280;58630;43.022;25.100;2023-04-15T03:53:46;;;;15.50
70969;BMP280;58630;43.022;25.100;2023-04-15T03:56:12;;;;15.50
70969;BMP280;58630;43.022;25.100;2023-04-15T03:58:37;;;;15.50
70969;BMP280;58630;43.022;25.100;2023-04-15T04:01:03;;;;15.50
70969;BMP280;58630;43.022;25.100;2023-04-15T04:03:28;;;;15.50
70969;BMP280;58630;43.022;25.100;2023-04-15T04:05:54;;;;15.50
70969;BMP280;58630;43.022;25.100;2023-04-15T04:08:19;;;;15.50
70969;BMP280;58630;43.022;25.100;2023-04-15T04:10:46;;;;15.50
70969;BMP280;58630;43.022;25.100;2023-04-15T04:13:11;;;;15.50
70969;BMP280;58630;43.022;25.100;2023-04-15T04:15:37;;;;15.40
70969;BMP280;58630;43.022;25.100;2023-04-15T04:18:02;;;;15.50
70969;BMP280;58630;43.022;25.100;2023-04-15T04:20:28;;;;15.50
70969;BMP280;58630;43.022;25.100;2023-04-15T04:22:54;;;;15.40
70969;BMP280;58630;43.022;25.100;2023-04-15T04:25:19;;;;15.50
70969;BMP280;58630;43.022;25.100;2023-04-15T04:27:45;;;;15.50
70969;BMP280;58630;43.022;25.100;2023-04-15T04:30:11;;;;15.50
70969;BMP280;58630;43.022;25.100;2023-04-15T04:32:37;;;;15.40
70969;BMP280;58630;43.022;25.100;2023-04-15T04:35:02;;;;15.40
70969;BMP280;58630;43.022;25.100;2023-04-15T04:37:28;;;;15.40
70969;BMP280;58630;43.022;25.100;2023-04-15T04:39:54;;;;15.40
70969;BMP280;58630;43.022;25.100;2023-04-15T04:42:19;;;;15.40
70969;BMP280;58630;43.022;25.100;2023-04-15T04:44:45;;;;15.40
70969;BMP280;58630;43.022;25.100;2023-04-15T04:47:11;;;;15.40
70969;BMP280;58630;43.022;25.100;2023-04-15T04:49:37;;;;15.40
70969;BMP280;58630;43.022;25.100;2023-04-15T04:52:02;;;;15.40
70969;BMP280;58630;43.022;25.100;2023-04-15T04:54:28;;;;15.40
70969;BMP280;58630;43.022;25.100;2023-04-15T04:56:55;;;;15.40
70969;BMP280;58630;43.022;25.100;2023-04-15T04:59:22;;;;15.40
70969;BMP280;58630;43.022;25.100;2023-04-15T05:01:47;;;;15.40
70969;BMP280;58630;43.022;25.100;2023-04-15T05:04:13;;;;15.40
70969;BMP280;58630;43.022;25.100;2023-04-15T05:06:39;;;;15.40
70969;BMP280;58630;43.022;25.100;2023-04-15T05:09:05;;;;15.40
70969;BMP280;58630;43.022;25.100;2023-04-15T05:11:30;;;;15.40
70969;BMP280;58630;43.022;25.100;2023-04-15T05:13:56;;;;15.40
70969;BMP280;58630;43.022;25.100;2023-04-15T05:16:22;;;;15.40
70969;BMP280;58630;43.022;25.100;2023-04-15T05:18:48;;;;15.40
70969;BMP280;58630;43.022;25.100;2023-04-15T05:21:13;;;;15.40
70969;BMP280;58630;43.022;25.100;2023-04-15T05:23:39;;;;15.40
70969;BMP280;58630;43.022;25.100;2023-04-15T05:26:05;;;;15.30
70969;BMP280;58630;43.022;25.100;2023-04-15T05:28:30;;;;15.40
70969;BMP280;58630;43.022;25.100;2023-04-15T05:30:56;;;;15.30
70969;BMP280;58630;43.022;25.100;2023-04-15T05:33:21;;;;15.30
70969;BMP280;58630;43.022;25.100;2023-04-15T05:35:47;;;;15.30
70969;BMP280;58630;43.022;25.100;2023-04-15T05:38:13;;;;15.30
70969;BMP280;58630;43.022;25.100;2023-04-15T05:40:38;;;;15.30
70969;BMP280;58630;43.022;25.100;2023-04-15T05:43:04;;;;15.30
70969;BMP280;58630;43.022;25.100;2023-04-15T05:45:29;;;;15.30
70969;BMP280;58630;43.022;25.100;2023-04-15T05:47:55;;;;15.30
70969;BMP280;58630;43.022;25.100;2023-04-15T05:50:20;;;;15.30
70969;BMP280;58630;43.022;25.100;2023-04-15T05:52:46;;;;15.30
70969;BMP280;58630;43.022;25.100;2023-04-15T05:55:12;;;;15.30
70969;BMP280;58630;43.022;25.100;2023-04-15T05:57:38;;;;15.30
70969;BMP280;58630;43.022;25.100;2023-04-15T06:00:04;;;;15.30
70969;BMP280;58630;43.022;25.100;2023-04-15T06:02:30;;;;15.30
70969;BMP280;58630;43.022;25.100;2023-04-15T06:04:56;;;;15.30
70969;BMP280;58630;43.022;25.100;2023-04-15T06:07:22;;;;15.30
70969;BMP280;58630;43.022;25.100;2023-04-15T06:09:47;;;;15.30
70969;BMP280;58630;43.022;25.100;2023-04-15T06:12:13;;;;15.30
70969;BMP280;58630;43.022;25.100;2023-04-15T06:14:39;;;;15.30
70969;BMP280;58630;43.022;25.100;2023-04-15T06:17:05;;;;15.30
70969;BMP280;58630;43.022;25.100;2023-04-15T06:19:31;;;;15.30
70969;BMP280;58630;43.022;25.100;2023-04-15T06:21:57;;;;15.30
70969;BMP280;58630;43.022;25.100;2023-04-15T06:24:22;;;;15.30
70969;BMP280;58630;43.022;25.100;2023-04-15T06:26:48;;;;15.30
70969;BMP280;58630;43.022;25.100;2023-04-15T06:29:13;;;;15.30
70969;BMP280;58630;43.022;25.100;2023-04-15T06:31:39;;;;15.40
70969;BMP280;58630;43.022;25.100;2023-04-15T06:34:05;;;;15.30
70969;BMP280;58630;43.022;25.100;2023-04-15T06:36:30;;;;15.30
70969;BMP280;58630;43.022;25.100;2023-04-15T06:38:56;;;;15.40
70969;BMP280;58630;43.022;25.100;2023-04-15T06:41:22;;;;15.40
70969;BMP280;58630;43.022;25.100;2023-04-15T06:43:48;;;;15.40
70969;BMP280;58630;43.022;25.100;2023-04-15T06:46:13;;;;15.40
70969;BMP280;58630;43.022;25.100;2023-04-15T06:48:39;;;;15.40
70969;BMP280;58630;43.022;25.100;2023-04-15T06:51:04;;;;15.40
70969;BMP280;58630;43.022;25.100;2023-04-15T06:53:30;;;;15.40
70969;BMP280;58630;43.022;25.100;2023-04-15T06:55:56;;;;15.40
70969;BMP280;58630;43.022;25.100;2023-04-15T06:58:21;;;;15.40
70969;BMP280;58630;43.022;25.100;2023-04-15T07:00:47;;;;15.40
70969;BMP280;58630;43.022;25.100;2023-04-15T07:03:13;;;;15.40
70969;BMP280;58630;43.022;25.100;2023-04-15T07:05:39;;;;15.40
70969;BMP280;58630;43.022;25.100;2023-04-15T07:08:05;;;;15.40
70969;BMP280;58630;43.022;25.100;2023-04-15T07:10:34;;;;15.40
70969;BMP280;58630;43.022;25.100;2023-04-15T07:13:00;;;;15.40
70969;BMP280;58630;43.022;25.100;2023-04-15T07:15:26;;;;15.40
70969;BMP280;58630;43.022;25.100;2023-04-15T07:17:51;;;;15.40
70969;BMP280;58630;43.022;25.100;2023-04-15T07:20:17;;;;15.40
70969;BMP280;58630;43.022;25.100;2023-04-15T07:22:42;;;;15.40
70969;BMP280;58630;43.022;25.100;2023-04-15T07:25:08;;;;15.40
70969;BMP280;58630;43.022;25.100;2023-04-15T07:27:34;;;;15.50
70969;BMP280;58630;43.022;25.100;2023-04-15T07:29:59;;;;15.50
70969;BMP280;58630;43.022;25.100;2023-04-15T07:32:25;;;;15.50
70969;BMP280;58630;43.022;25.100;2023-04-15T07:34:50;;;;15.50
70969;BMP280;58630;43.022;25.100;2023-04-15T07:37:16;;;;15.50
70969;BMP280;58630;43.022;25.100;2023-04-15T07:39:41;;;;15.50
70969;BMP280;58630;43.022;25.100;2023-04-15T07:42:07;;;;15.50
70969;BMP280;58630;43.022;25.100;2023-04-15T07:44:33;;;;15.50
70969;BMP280;58630;43.022;25.100;2023-04-15T07:46:59;;;;15.50
70969;BMP280;58630;43.022;25.100;2023-04-15T07:49:24;;;;15.50
70969;BMP280;58630;43.022;25.100;2023-04-15T07:51:50;;;;15.50
70969;BMP280;58630;43.022;25.100;2023-04-15T07:54:16;;;;15.50
70969;BMP280;58630;43.022;25.100;2023-04-15T07:56:41;;;;15.50
70969;BMP280;58630;43.022;25.100;2023-04-15T07:59:07;;;;15.50
70969;BMP280;58630;43.022;25.100;2023-04-15T08:01:33;;;;15.50
70969;BMP280;58630;43.022;25.100;2023-04-15T08:03:59;;;;15.60
70969;BMP280;58630;43.022;25.100;2023-04-15T08:06:24;;;;15.60
70969;BMP280;58630;43.022;25.100;2023-04-15T08:08:50;;;;15.60
70969;BMP280;58630;43.022;25.100;2023-04-15T08:11:16;;;;15.60
70969;BMP280;58630;43.022;25.100;2023-04-15T08:13:41;;;;15.60
70969;BMP280;58630;43.022;25.100;2023-04-15T08:16:15;;;;15.60
70969;BMP280;58630;43.022;25.100;2023-04-15T08:18:41;;;;15.60
70969;BMP280;58630;43.022;25.100;2023-04-15T08:21:07;;;;15.60
70969;BMP280;58630;43.022;25.100;2023-04-15T08:23:32;;;;15.60
70969;BMP280;58630;43.022;25.100;2023-04-15T08:25:58;;;;15.70
70969;BMP280;58630;43.022;25.100;2023-04-15T08:28:24;;;;15.70
70969;BMP280;58630;43.022;25.100;2023-04-15T08:30:51;;;;15.70
70969;BMP280;58630;43.022;25.100;2023-04-15T08:33:16;;;;15.70
70969;BMP280;58630;43.022;25.100;2023-04-15T08:35:42;;;;15.70
70969;BMP280;58630;43.022;25.100;2023-04-15T08:38:08;;;;15.70
70969;BMP280;58630;43.022;25.100;2023-04-15T08:40:43;;;;15.70
70969;BMP280;58630;43.022;25.100;2023-04-15T08:43:10;;;;15.70
70969;BMP280;58630;43.022;25.100;2023-04-15T08:45:39;;;;15.70
70969;BMP280;58630;43.022;25.100;2023-04-15T08:48:05;;;;15.70
70969;BMP280;58630;43.022;25.100;2023-04-15T08:50:32;;;;15.80
70969;BMP280;58630;43.022;25.100;2023-04-15T08:52:58;;;;15.80
70969;BMP280;58630;43.022;25.100;2023-04-15T08:55:28;;;;15.80
70969;BMP280;58630;43.022;25.100;2023-04-15T08:57:54;;;;15.80
70969;BMP280;58630;43.022;25.100;2023-04-15T09:00:20;;;;15.80
70969;BMP280;58630;43.022;25.100;2023-04-15T09:02:47;;;;15.80
70969;BMP280;58630;43.022;25.100;2023-04-15T09:05:12;;;;15.80
70969;BMP280;58630;43.022;25.100;2023-04-15T09:07:38;;;;15.80
70969;BMP280;58630;43.022;25.100;2023-04-15T09:10:04;;;;15.80
70969;BMP280;58630;43.022;25.100;2023-04-15T09:12:29;;;;15.80
70969;BMP280;58630;43.022;25.100;2023-04-15T09:14:56;;;;15.90
70969;BMP280;58630;43.022;25.100;2023-04-15T09:17:21;;;;15.90
70969;BMP280;58630;43.022;25.100;2023-04-15T09:19:48;;;;15.90
70969;BMP280;58630;43.022;25.100;2023-04-15T09:22:15;;;;15.90
70969;BMP280;58630;43.022;25.100;2023-04-15T09:24:41;;;;15.90
70969;BMP280;58630;43.022;25.100;2023-04-15T09:27:07;;;;15.90
70969;BMP280;58630;43.022;25.100;2023-04-15T09:29:33;;;;15.90
70969;BMP280;58630;43.022;25.100;2023-04-15T09:32:12;;;;16.00
70969;BMP280;58630;43.022;25.100;2023-04-15T09:34:37;;;;16.00
70969;BMP280;58630;43.022;25.100;2023-04-15T09:37:03;;;;16.00
70969;BMP280;58630;43.022;25.100;2023-04-15T09:39:45;;;;16.00
70969;BMP280;58630;43.022;25.100;2023-04-15T09:42:11;;;;16.00
70969;BMP280;58630;43.022;25.100;2023-04-15T09:44:37;;;;16.00
70969;BMP280;58630;43.022;25.100;2023-04-15T09:47:02;;;;16.10
70969;BMP280;58630;43.022;25.100;2023-04-15T09:49:28;;;;16.10
70969;BMP280;58630;43.022;25.100;2023-04-15T09:51:57;;;;16.10
70969;BMP280;58630;43.022;25.100;2023-04-15T09:54:22;;;;16.10
70969;BMP280;58630;43.022;25.100;2023-04-15T09:56:48;;;;16.20
70969;BMP280;58630;43.022;25.100;2023-04-15T09:59:14;;;;16.20
70969;BMP280;58630;43.022;25.100;2023-04-15T10:01:39;;;;16.30
70969;BMP280;58630;43.022;25.100;2023-04-15T10:04:06;;;;16.30
70969;BMP280;58630;43.022;25.100;2023-04-15T10:06:33;;;;16.30
70969;BMP280;58630;43.022;25.100;2023-04-15T10:08:59;;;;16.40
70969;BMP280;58630;43.022;25.100;2023-04-15T10:11:27;;;;16.50
70969;BMP280;58630;43.022;25.100;2023-04-15T10:13:52;;;;16.60
70969;BMP280;58630;43.022;25.100;2023-04-15T10:16:19;;;;16.70
70969;BMP280;58630;43.022;25.100;2023-04-15T10:18:46;;;;16.70
70969;BMP280;58630;43.022;25.100;2023-04-15T10:21:12;;;;16.80
70969;BMP280;58630;43.022;25.100;2023-04-15T10:23:40;;;;16.80
70969;BMP280;58630;43.022;25.100;2023-04-15T10:26:06;;;;16.90
70969;BMP280;58630;43.022;25.100;2023-04-15T10:28:33;;;;16.90
70969;BMP280;58630;43.022;25.100;2023-04-15T10:30:59;;;;17.00
70969;BMP280;58630;43.022;25.100;2023-04-15T10:33:25;;;;17.00
70969;BMP280;58630;43.022;25.100;2023-04-15T10:35:52;;;;17.00
70969;BMP280;58630;43.022;25.100;2023-04-15T10:46:36;;;;17.20
70969;BMP280;58630;43.022;25.100;2023-04-15T10:49:08;;;;17.20
70969;BMP280;58630;43.022;25.100;2023-04-15T10:51:36;;;;17.30
70969;BMP280;58630;43.022;25.100;2023-04-15T10:54:03;;;;17.30
70969;BMP280;58630;43.022;25.100;2023-04-15T10:56:32;;;;17.40
70969;BMP280;58630;43.022;25.100;2023-04-15T10:58:58;;;;17.50
70969;BMP280;58630;43.022;25.100;2023-04-15T11:04:13;;;;17.60
70969;BMP280;58630;43.022;25.100;2023-04-15T11:06:44;;;;17.70
70969;BMP280;58630;43.022;25.100;2023-04-15T11:09:29;;;;17.70
70969;BMP280;58630;43.022;25.100;2023-04-15T11:12:06;;;;17.80
70969;BMP280;58630;43.022;25.100;2023-04-15T11:14:33;;;;17.90
70969;BMP280;58630;43.022;25.100;2023-04-15T11:17:00;;;;17.90
70969;BMP280;58630;43.022;25.100;2023-04-15T11:19:25;;;;18.00
70969;BMP280;58630;43.022;25.100;2023-04-15T11:21:51;;;;18.10
70969;BMP280;58630;43.022;25.100;2023-04-15T11:24:25;;;;18.10
70969;BMP280;58630;43.022;25.100;2023-04-15T11:26:56;;;;18.20
70969;BMP280;58630;43.022;25.100;2023-04-15T11:29:21;;;;18.30
70969;BMP280;58630;43.022;25.100;2023-04-15T11:31:47;;;;18.40
70969;BMP280;58630;43.022;25.100;2023-04-15T11:34:21;;;;18.40
70969;BMP280;58630;43.022;25.100;2023-04-15T11:36:47;;;;18.50
70969;BMP280;58630;43.022;25.100;2023-04-15T11:39:13;;;;18.60
70969;BMP280;58630;43.022;25.100;2023-04-15T11:41:40;;;;18.70
70969;BMP280;58630;43.022;25.100;2023-04-15T11:44:16;;;;18.80
70969;BMP280;58630;43.022;25.100;2023-04-15T11:46:42;;;;18.90
70969;BMP280;58630;43.022;25.100;2023-04-15T11:49:07;;;;18.90
70969;BMP280;58630;43.022;25.100;2023-04-15T11:51:33;;;;19.00
70969;BMP280;58630;43.022;25.100;2023-04-15T11:53:59;;;;19.00
70969;BMP280;58630;43.022;25.100;2023-04-15T11:56:25;;;;19.10
70969;BMP280;58630;43.022;25.100;2023-04-15T11:58:51;;;;19.10
70969;BMP280;58630;43.022;25.100;2023-04-15T12:01:17;;;;19.20
70969;BMP280;58630;43.022;25.100;2023-04-15T12:03:46;;;;19.20
70969;BMP280;58630;43.022;25.100;2023-04-15T12:11:12;;;;19.50
70969;BMP280;58630;43.022;25.100;2023-04-15T12:13:42;;;;19.80
70969;BMP280;58630;43.022;25.100;2023-04-15T12:16:07;;;;20.20
70969;BMP280;58630;43.022;25.100;2023-04-15T12:18:33;;;;20.50
70969;BMP280;58630;43.022;25.100;2023-04-15T12:21:03;;;;20.80
70969;BMP280;58630;43.022;25.100;2023-04-15T12:23:29;;;;21.10
70969;BMP280;58630;43.022;25.100;2023-04-15T12:25:55;;;;21.50
70969;BMP280;58630;43.022;25.100;2023-04-15T12:28:21;;;;21.70
70969;BMP280;58630;43.022;25.100;2023-04-15T12:30:49;;;;21.90
70969;BMP280;58630;43.022;25.100;2023-04-15T12:33:15;;;;22.00
70969;BMP280;58630;43.022;25.100;2023-04-15T12:35:41;;;;22.00
70969;BMP280;58630;43.022;25.100;2023-04-15T12:38:06;;;;22.10
70969;BMP280;58630;43.022;25.100;2023-04-15T12:40:34;;;;22.30
70969;BMP280;58630;43.022;25.100;2023-04-15T12:43:00;;;;22.60
70969;BMP280;58630;43.022;25.100;2023-04-15T12:45:26;;;;22.90
70969;BMP280;58630;43.022;25.100;2023-04-15T12:47:51;;;;23.20
70969;BMP280;58630;43.022;25.100;2023-04-15T12:50:17;;;;23.50
70969;BMP280;58630;43.022;25.100;2023-04-15T12:52:42;;;;23.90
70969;BMP280;58630;43.022;25.100;2023-04-15T12:55:08;;;;24.00
70969;BMP280;58630;43.022;25.100;2023-04-15T12:57:33;;;;24.10
70969;BMP280;58630;43.022;25.100;2023-04-15T12:59:59;;;;24.30
70969;BMP280;58630;43.022;25.100;2023-04-15T13:02:24;;;;24.50
70969;BMP280;58630;43.022;25.100;2023-04-15T13:04:53;;;;24.70
70969;BMP280;58630;43.022;25.100;2023-04-15T13:07:18;;;;24.90
70969;BMP280;58630;43.022;25.100;2023-04-15T13:09:44;;;;25.00
70969;BMP280;58630;43.022;25.100;2023-04-15T13:12:09;;;;25.20
70969;BMP280;58630;43.022;25.100;2023-04-15T13:14:35;;;;25.50
70969;BMP280;58630;43.022;25.100;2023-04-15T13:17:01;;;;25.70
70969;BMP280;58630;43.022;25.100;2023-04-15T13:19:28;;;;26.00
70969;BMP280;58630;43.022;25.100;2023-04-15T13:21:53;;;;26.20
70969;BMP280;58630;43.022;25.100;2023-04-15T13:24:19;;;;26.30
70969;BMP280;58630;43.022;25.100;2023-04-15T13:26:45;;;;26.60
70969;BMP280;58630;43.022;25.100;2023-04-15T13:29:11;;;;26.70
70969;BMP280;58630;43.022;25.100;2023-04-15T13:31:37;;;;26.80
70969;BMP280;58630;43.022;25.100;2023-04-15T13:34:03;;;;26.80
70969;BMP280;58630;43.022;25.100;2023-04-15T13:36:28;;;;26.90
70969;BMP280;58630;43.022;25.100;2023-04-15T13:38:54;;;;26.80
70969;BMP280;58630;43.022;25.100;2023-04-15T13:41:20;;;;26.80
70969;BMP280;58630;43.022;25.100;2023-04-15T13:43:45;;;;26.80
70969;BMP280;58630;43.022;25.100;2023-04-15T13:46:11;;;;26.70
70969;BMP280;58630;43.022;25.100;2023-04-15T13:48:36;;;;26.80
70969;BMP280;58630;43.022;25.100;2023-04-15T13:51:02;;;;26.90
70969;BMP280;58630;43.022;25.100;2023-04-15T13:53:28;;;;26.90
70969;BMP280;58630;43.022;25.100;2023-04-15T13:55:55;;;;26.90
70969;BMP280;58630;43.022;25.100;2023-04-15T13:58:20;;;;26.90
70969;BMP280;58630;43.022;25.100;2023-04-15T14:00:46;;;;27.00
70969;BMP280;58630;43.022;25.100;2023-04-15T14:03:11;;;;27.00
70969;BMP280;58630;43.022;25.100;2023-04-15T14:05:37;;;;27.10
70969;BMP280;58630;43.022;25.100;2023-04-15T14:08:02;;;;26.90
70969;BMP280;58630;43.022;25.100;2023-04-15T14:10:28;;;;26.70
70969;BMP280;58630;43.022;25.100;2023-04-15T14:12:53;;;;26.70
70969;BMP280;58630;43.022;25.100;2023-04-15T14:15:19;;;;26.80
70969;BMP280;58630;43.022;25.100;2023-04-15T14:17:45;;;;26.80
70969;BMP280;58630;43.022;25.100;2023-04-15T14:20:11;;;;26.70
70969;BMP280;58630;43.022;25.100;2023-04-15T14:22:36;;;;26.60
70969;BMP280;58630;43.022;25.100;2023-04-15T14:25:02;;;;26.40
70969;BMP280;58630;43.022;25.100;2023-04-15T14:27:28;;;;26.40
70969;BMP280;58630;43.022;25.100;2023-04-15T14:29:53;;;;26.40
70969;BMP280;58630;43.022;25.100;2023-04-15T14:32:19;;;;26.30
70969;BMP280;58630;43.022;25.100;2023-04-15T14:34:45;;;;26.30
70969;BMP280;58630;43.022;25.100;2023-04-15T14:37:10;;;;26.20
70969;BMP280;58630;43.022;25.100;2023-04-15T14:39:36;;;;25.90
70969;BMP280;58630;43.022;25.100;2023-04-15T14:42:02;;;;25.90
70969;BMP280;58630;43.022;25.100;2023-04-15T14:44:27;;;;25.80
70969;BMP280;58630;43.022;25.100;2023-04-15T14:46:53;;;;25.70
70969;BMP280;58630;43.022;25.100;2023-04-15T14:49:19;;;;25.70
70969;BMP280;58630;43.022;25.100;2023-04-15T14:51:44;;;;25.60
70969;BMP280;58630;43.022;25.100;2023-04-15T14:54:10;;;;25.60
70969;BMP280;58630;43.022;25.100;2023-04-15T14:56:36;;;;25.50
70969;BMP280;58630;43.022;25.100;2023-04-15T14:59:01;;;;25.50
70969;BMP280;58630;43.022;25.100;2023-04-15T15:01:27;;;;25.50
70969;BMP280;58630;43.022;25.100;2023-04-15T15:03:52;;;;25.50
70969;BMP280;58630;43.022;25.100;2023-04-15T15:06:19;;;;25.50
70969;BMP280;58630;43.022;25.100;2023-04-15T15:08:45;;;;25.60
70969;BMP280;58630;43.022;25.100;2023-04-15T15:11:10;;;;25.70
70969;BMP280;58630;43.022;25.100;2023-04-15T15:13:36;;;;25.80
70969;BMP280;58630;43.022;25.100;2023-04-15T15:16:01;;;;25.90
70969;BMP280;58630;43.022;25.100;2023-04-15T15:18:27;;;;25.80
70969;BMP280;58630;43.022;25.100;2023-04-15T15:20:52;;;;25.80
70969;BMP280;58630;43.022;25.100;2023-04-15T15:23:18;;;;25.80
70969;BMP280;58630;43.022;25.100;2023-04-15T15:25:44;;;;25.00
70969;BMP280;58630;43.022;25.100;2023-04-15T15:28:10;;;;24.60
70969;BMP280;58630;43.022;25.100;2023-04-15T15:30:35;;;;24.30
70969;BMP280;58630;43.022;25.100;2023-04-15T15:33:01;;;;24.10
70969;BMP280;58630;43.022;25.100;2023-04-15T15:35:26;;;;24.00
70969;BMP280;58630;43.022;25.100;2023-04-15T15:37:52;;;;24.00
70969;BMP280;58630;43.022;25.100;2023-04-15T15:40:19;;;;23.90
70969;BMP280;58630;43.022;25.100;2023-04-15T15:42:44;;;;23.90
70969;BMP280;58630;43.022;25.100;2023-04-15T15:45:11;;;;23.90
70969;BMP280;58630;43.022;25.100;2023-04-15T15:47:37;;;;23.90
70969;BMP280;58630;43.022;25.100;2023-04-15T15:50:02;;;;23.90
70969;BMP280;58630;43.022;25.100;2023-04-15T15:52:28;;;;23.90
70969;BMP280;58630;43.022;25.100;2023-04-15T15:54:53;;;;23.90